<?xml version="1.0" encoding="UTF-8" standalone="no" ?>
<gpx xmlns="http://www.topografix.com/GPX/1/1" xmlns:xsi="http://www.w3.org/2001/XMLSchema-instance" xsi:schemaLocation="http://www.topografix.com/GPX/1/1 http://www.topografix.com/GPX/1/1/gpx.xsd" version="1.1" creator="VisuGPX - https://www.visugpx.com">
  <metadata>
    <name>Liege bastogne liege 36 k</name>
  </metadata>
  <wpt lat="50.6453" lon="5.57239">
    <ele>69.5</ele>
    <name><![CDATA[001 Départ]]></name>
  </wpt>
  <wpt lat="50.62056" lon="5.57792">
    <ele>66.9</ele>
    <name><![CDATA[002 Pont de Fragnée]]></name>
  </wpt>
  <wpt lat="50.54973" lon="5.66431">
    <ele>298.8</ele>
    <name><![CDATA[003 Monument]]></name>
  </wpt>
  <wpt lat="50.47986" lon="5.71208">
    <ele>137.1</ele>
    <name><![CDATA[004 Remouchamps]]></name>
  </wpt>
  <wpt lat="50.44105" lon="5.66574">
    <ele>229.5</ele>
    <name><![CDATA[005 Chateau de Harzé]]></name>
  </wpt>
  <wpt lat="50.18216" lon="5.5744">
    <ele>224.1</ele>
    <name><![CDATA[006 La Roche]]></name>
  </wpt>
  <wpt lat="50.00638" lon="5.72083">
    <ele>506.6</ele>
    <name><![CDATA[007 Bastogne]]></name>
  </wpt>
  <wpt lat="50.2877" lon="5.91523">
    <ele>365.7</ele>
    <name><![CDATA[008 Houffalize]]></name>
  </wpt>
  <wpt lat="50.35764" lon="5.91605">
    <ele>480.5</ele>
    <name><![CDATA[009 Wanne]]></name>
  </wpt>
  <wpt lat="50.39326" lon="5.93064">
    <ele>284.6</ele>
    <name><![CDATA[010 Stavelot]]></name>
  </wpt>
  <wpt lat="50.49188" lon="5.86258">
    <ele>252.4</ele>
    <name><![CDATA[011 Spa]]></name>
  </wpt>
  <wpt lat="50.49232" lon="5.69933">
    <ele>287.7</ele>
    <name><![CDATA[012 La Redoute]]></name>
  </wpt>
  <wpt lat="50.65577" lon="5.53003">
    <ele>182.8</ele>
    <name><![CDATA[013 Ans]]></name>
  </wpt>
  <trk>
    <name><![CDATA[Liege bastogne liege 36 k_3]]></name>
    <trkseg>
      <trkpt lat="50.49241" lon="5.76869">
        <ele>354.86</ele>
        <time>2010-04-02T13:58:18Z</time>
      </trkpt>
      <trkpt lat="50.48934" lon="5.76676">
        <ele>354.38</ele>
        <time>2010-04-02T13:58:37Z</time>
      </trkpt>
      <trkpt lat="50.48818" lon="5.76602">
        <ele>355.34</ele>
        <time>2010-04-02T13:58:47Z</time>
      </trkpt>
      <trkpt lat="50.48812" lon="5.76596">
        <ele>355.34</ele>
        <time>2010-04-02T13:58:48Z</time>
      </trkpt>
      <trkpt lat="50.48812" lon="5.76592">
        <ele>355.34</ele>
        <time>2010-04-02T13:58:49Z</time>
      </trkpt>
      <trkpt lat="50.48811" lon="5.76589">
        <ele>355.34</ele>
        <time>2010-04-02T13:58:50Z</time>
      </trkpt>
      <trkpt lat="50.48811" lon="5.76585">
        <ele>355.34</ele>
        <time>2010-04-02T13:58:51Z</time>
      </trkpt>
      <trkpt lat="50.48811" lon="5.76579">
        <ele>355.34</ele>
        <time>2010-04-02T13:58:52Z</time>
      </trkpt>
      <trkpt lat="50.4881" lon="5.76571">
        <ele>355.34</ele>
        <time>2010-04-02T13:58:53Z</time>
      </trkpt>
      <trkpt lat="50.4881" lon="5.76562">
        <ele>355.34</ele>
        <time>2010-04-02T13:58:54Z</time>
      </trkpt>
      <trkpt lat="50.48806" lon="5.7652">
        <ele>355.34</ele>
        <time>2010-04-02T13:58:57Z</time>
      </trkpt>
      <trkpt lat="50.48774" lon="5.76379">
        <ele>354.38</ele>
        <time>2010-04-02T13:59:04Z</time>
      </trkpt>
      <trkpt lat="50.48677" lon="5.75965">
        <ele>345.73</ele>
        <time>2010-04-02T13:59:19Z</time>
      </trkpt>
      <trkpt lat="50.48593" lon="5.75581">
        <ele>336.12</ele>
        <time>2010-04-02T13:59:33Z</time>
      </trkpt>
      <trkpt lat="50.48592" lon="5.75554">
        <ele>335.64</ele>
        <time>2010-04-02T13:59:34Z</time>
      </trkpt>
      <trkpt lat="50.48596" lon="5.75526">
        <ele>335.64</ele>
        <time>2010-04-02T13:59:35Z</time>
      </trkpt>
      <trkpt lat="50.48601" lon="5.75499">
        <ele>335.16</ele>
        <time>2010-04-02T13:59:36Z</time>
      </trkpt>
      <trkpt lat="50.48607" lon="5.75474">
        <ele>335.16</ele>
        <time>2010-04-02T13:59:37Z</time>
      </trkpt>
      <trkpt lat="50.48614" lon="5.75448">
        <ele>334.68</ele>
        <time>2010-04-02T13:59:38Z</time>
      </trkpt>
      <trkpt lat="50.4863" lon="5.75368">
        <ele>333.71</ele>
        <time>2010-04-02T13:59:41Z</time>
      </trkpt>
      <trkpt lat="50.48632" lon="5.75338">
        <ele>333.23</ele>
        <time>2010-04-02T13:59:42Z</time>
      </trkpt>
      <trkpt lat="50.48632" lon="5.75307">
        <ele>332.75</ele>
        <time>2010-04-02T13:59:43Z</time>
      </trkpt>
      <trkpt lat="50.4863" lon="5.75276">
        <ele>332.27</ele>
        <time>2010-04-02T13:59:44Z</time>
      </trkpt>
      <trkpt lat="50.48626" lon="5.75245">
        <ele>332.27</ele>
        <time>2010-04-02T13:59:45Z</time>
      </trkpt>
      <trkpt lat="50.4862" lon="5.75214">
        <ele>331.79</ele>
        <time>2010-04-02T13:59:46Z</time>
      </trkpt>
      <trkpt lat="50.48613" lon="5.75183">
        <ele>331.31</ele>
        <time>2010-04-02T13:59:47Z</time>
      </trkpt>
      <trkpt lat="50.48606" lon="5.75152">
        <ele>330.35</ele>
        <time>2010-04-02T13:59:48Z</time>
      </trkpt>
      <trkpt lat="50.48481" lon="5.7468">
        <ele>320.26</ele>
        <time>2010-04-02T14:00:03Z</time>
      </trkpt>
      <trkpt lat="50.48364" lon="5.7444">
        <ele>305.36</ele>
        <time>2010-04-02T14:00:12Z</time>
      </trkpt>
      <trkpt lat="50.48225" lon="5.74165">
        <ele>288.53</ele>
        <time>2010-04-02T14:00:23Z</time>
      </trkpt>
      <trkpt lat="50.48212" lon="5.74148">
        <ele>287.09</ele>
        <time>2010-04-02T14:00:24Z</time>
      </trkpt>
      <trkpt lat="50.48198" lon="5.74134">
        <ele>285.65</ele>
        <time>2010-04-02T14:00:25Z</time>
      </trkpt>
      <trkpt lat="50.48182" lon="5.74124">
        <ele>284.21</ele>
        <time>2010-04-02T14:00:26Z</time>
      </trkpt>
      <trkpt lat="50.48163" lon="5.74124">
        <ele>282.77</ele>
        <time>2010-04-02T14:00:27Z</time>
      </trkpt>
      <trkpt lat="50.48143" lon="5.74128">
        <ele>281.32</ele>
        <time>2010-04-02T14:00:28Z</time>
      </trkpt>
      <trkpt lat="50.48124" lon="5.74133">
        <ele>280.36</ele>
        <time>2010-04-02T14:00:29Z</time>
      </trkpt>
      <trkpt lat="50.48104" lon="5.74139">
        <ele>278.92</ele>
        <time>2010-04-02T14:00:30Z</time>
      </trkpt>
      <trkpt lat="50.48025" lon="5.74152">
        <ele>274.11</ele>
        <time>2010-04-02T14:00:34Z</time>
      </trkpt>
      <trkpt lat="50.48004" lon="5.74148">
        <ele>272.67</ele>
        <time>2010-04-02T14:00:35Z</time>
      </trkpt>
      <trkpt lat="50.47984" lon="5.74141">
        <ele>271.71</ele>
        <time>2010-04-02T14:00:36Z</time>
      </trkpt>
      <trkpt lat="50.47905" lon="5.74105">
        <ele>266.9</ele>
        <time>2010-04-02T14:00:40Z</time>
      </trkpt>
      <trkpt lat="50.47884" lon="5.74103">
        <ele>265.46</ele>
        <time>2010-04-02T14:00:41Z</time>
      </trkpt>
      <trkpt lat="50.47864" lon="5.74104">
        <ele>264.5</ele>
        <time>2010-04-02T14:00:42Z</time>
      </trkpt>
      <trkpt lat="50.47679" lon="5.74106">
        <ele>253.93</ele>
        <time>2010-04-02T14:00:51Z</time>
      </trkpt>
      <trkpt lat="50.47495" lon="5.74045">
        <ele>243.83</ele>
        <time>2010-04-02T14:01:01Z</time>
      </trkpt>
      <trkpt lat="50.4744" lon="5.74005">
        <ele>240.95</ele>
        <time>2010-04-02T14:01:05Z</time>
      </trkpt>
      <trkpt lat="50.4743" lon="5.73994">
        <ele>239.51</ele>
        <time>2010-04-02T14:01:06Z</time>
      </trkpt>
      <trkpt lat="50.47425" lon="5.7398">
        <ele>239.02</ele>
        <time>2010-04-02T14:01:07Z</time>
      </trkpt>
      <trkpt lat="50.47421" lon="5.73967">
        <ele>238.54</ele>
        <time>2010-04-02T14:01:08Z</time>
      </trkpt>
      <trkpt lat="50.47416" lon="5.73952">
        <ele>237.58</ele>
        <time>2010-04-02T14:01:09Z</time>
      </trkpt>
      <trkpt lat="50.47412" lon="5.73935">
        <ele>237.1</ele>
        <time>2010-04-02T14:01:10Z</time>
      </trkpt>
      <trkpt lat="50.47409" lon="5.73915">
        <ele>236.14</ele>
        <time>2010-04-02T14:01:11Z</time>
      </trkpt>
      <trkpt lat="50.47407" lon="5.73894">
        <ele>235.66</ele>
        <time>2010-04-02T14:01:12Z</time>
      </trkpt>
      <trkpt lat="50.47407" lon="5.73874">
        <ele>234.7</ele>
        <time>2010-04-02T14:01:13Z</time>
      </trkpt>
      <trkpt lat="50.47409" lon="5.73852">
        <ele>233.74</ele>
        <time>2010-04-02T14:01:14Z</time>
      </trkpt>
      <trkpt lat="50.47413" lon="5.73832">
        <ele>233.26</ele>
        <time>2010-04-02T14:01:15Z</time>
      </trkpt>
      <trkpt lat="50.47418" lon="5.73811">
        <ele>232.78</ele>
        <time>2010-04-02T14:01:16Z</time>
      </trkpt>
      <trkpt lat="50.47425" lon="5.73791">
        <ele>231.81</ele>
        <time>2010-04-02T14:01:17Z</time>
      </trkpt>
      <trkpt lat="50.47431" lon="5.73771">
        <ele>231.33</ele>
        <time>2010-04-02T14:01:18Z</time>
      </trkpt>
      <trkpt lat="50.47474" lon="5.73633">
        <ele>226.05</ele>
        <time>2010-04-02T14:01:26Z</time>
      </trkpt>
      <trkpt lat="50.4748" lon="5.73608">
        <ele>225.09</ele>
        <time>2010-04-02T14:01:28Z</time>
      </trkpt>
      <trkpt lat="50.4748" lon="5.73597">
        <ele>224.12</ele>
        <time>2010-04-02T14:01:29Z</time>
      </trkpt>
      <trkpt lat="50.47478" lon="5.73587">
        <ele>223.64</ele>
        <time>2010-04-02T14:01:30Z</time>
      </trkpt>
      <trkpt lat="50.47473" lon="5.73578">
        <ele>222.68</ele>
        <time>2010-04-02T14:01:31Z</time>
      </trkpt>
      <trkpt lat="50.47466" lon="5.73568">
        <ele>222.2</ele>
        <time>2010-04-02T14:01:32Z</time>
      </trkpt>
      <trkpt lat="50.47457" lon="5.73557">
        <ele>222.2</ele>
        <time>2010-04-02T14:01:33Z</time>
      </trkpt>
      <trkpt lat="50.47337" lon="5.73391">
        <ele>227.97</ele>
        <time>2010-04-02T14:01:47Z</time>
      </trkpt>
      <trkpt lat="50.47268" lon="5.73291">
        <ele>234.7</ele>
        <time>2010-04-02T14:01:57Z</time>
      </trkpt>
      <trkpt lat="50.47242" lon="5.73232">
        <ele>235.66</ele>
        <time>2010-04-02T14:02:06Z</time>
      </trkpt>
      <trkpt lat="50.47202" lon="5.73127">
        <ele>235.18</ele>
        <time>2010-04-02T14:02:15Z</time>
      </trkpt>
      <trkpt lat="50.47201" lon="5.73115">
        <ele>235.18</ele>
        <time>2010-04-02T14:02:16Z</time>
      </trkpt>
      <trkpt lat="50.47201" lon="5.73102">
        <ele>235.18</ele>
        <time>2010-04-02T14:02:17Z</time>
      </trkpt>
      <trkpt lat="50.47204" lon="5.73089">
        <ele>235.18</ele>
        <time>2010-04-02T14:02:18Z</time>
      </trkpt>
      <trkpt lat="50.47208" lon="5.73075">
        <ele>234.7</ele>
        <time>2010-04-02T14:02:19Z</time>
      </trkpt>
      <trkpt lat="50.47252" lon="5.72906">
        <ele>232.78</ele>
        <time>2010-04-02T14:02:28Z</time>
      </trkpt>
      <trkpt lat="50.47296" lon="5.72743">
        <ele>233.26</ele>
        <time>2010-04-02T14:02:38Z</time>
      </trkpt>
      <trkpt lat="50.47299" lon="5.72735">
        <ele>233.74</ele>
        <time>2010-04-02T14:02:39Z</time>
      </trkpt>
      <trkpt lat="50.47308" lon="5.72713">
        <ele>233.26</ele>
        <time>2010-04-02T14:02:44Z</time>
      </trkpt>
      <trkpt lat="50.47311" lon="5.72706">
        <ele>233.26</ele>
        <time>2010-04-02T14:02:45Z</time>
      </trkpt>
      <trkpt lat="50.47336" lon="5.72603">
        <ele>235.18</ele>
        <time>2010-04-02T14:02:53Z</time>
      </trkpt>
      <trkpt lat="50.47348" lon="5.72563">
        <ele>234.7</ele>
        <time>2010-04-02T14:02:56Z</time>
      </trkpt>
      <trkpt lat="50.47353" lon="5.72551">
        <ele>234.22</ele>
        <time>2010-04-02T14:02:57Z</time>
      </trkpt>
      <trkpt lat="50.47383" lon="5.72489">
        <ele>232.78</ele>
        <time>2010-04-02T14:03:02Z</time>
      </trkpt>
      <trkpt lat="50.47402" lon="5.72439">
        <ele>232.3</ele>
        <time>2010-04-02T14:03:06Z</time>
      </trkpt>
      <trkpt lat="50.47427" lon="5.72399">
        <ele>230.37</ele>
        <time>2010-04-02T14:03:11Z</time>
      </trkpt>
      <trkpt lat="50.47429" lon="5.72393">
        <ele>229.89</ele>
        <time>2010-04-02T14:03:12Z</time>
      </trkpt>
      <trkpt lat="50.47429" lon="5.72389">
        <ele>229.89</ele>
        <time>2010-04-02T14:03:13Z</time>
      </trkpt>
      <trkpt lat="50.47429" lon="5.72388">
        <ele>230.37</ele>
        <time>2010-04-02T14:03:23Z</time>
      </trkpt>
      <trkpt lat="50.47428" lon="5.72398">
        <ele>234.22</ele>
        <time>2010-04-02T14:18:06Z</time>
      </trkpt>
      <trkpt lat="50.47427" lon="5.72405">
        <ele>233.26</ele>
        <time>2010-04-02T14:18:12Z</time>
      </trkpt>
      <trkpt lat="50.47432" lon="5.72396">
        <ele>232.78</ele>
        <time>2010-04-02T14:18:14Z</time>
      </trkpt>
      <trkpt lat="50.47435" lon="5.72389">
        <ele>232.3</ele>
        <time>2010-04-02T14:18:15Z</time>
      </trkpt>
      <trkpt lat="50.47437" lon="5.72381">
        <ele>231.81</ele>
        <time>2010-04-02T14:18:16Z</time>
      </trkpt>
      <trkpt lat="50.47444" lon="5.72334">
        <ele>229.89</ele>
        <time>2010-04-02T14:18:20Z</time>
      </trkpt>
      <trkpt lat="50.47449" lon="5.72274">
        <ele>226.05</ele>
        <time>2010-04-02T14:18:24Z</time>
      </trkpt>
      <trkpt lat="50.47466" lon="5.72196">
        <ele>223.64</ele>
        <time>2010-04-02T14:18:29Z</time>
      </trkpt>
      <trkpt lat="50.47471" lon="5.72182">
        <ele>223.16</ele>
        <time>2010-04-02T14:18:30Z</time>
      </trkpt>
      <trkpt lat="50.47525" lon="5.72073">
        <ele>212.11</ele>
        <time>2010-04-02T14:18:39Z</time>
      </trkpt>
      <trkpt lat="50.47536" lon="5.72058">
        <ele>209.22</ele>
        <time>2010-04-02T14:18:41Z</time>
      </trkpt>
      <trkpt lat="50.47539" lon="5.7205">
        <ele>207.3</ele>
        <time>2010-04-02T14:18:42Z</time>
      </trkpt>
      <trkpt lat="50.4754" lon="5.72042">
        <ele>205.38</ele>
        <time>2010-04-02T14:18:43Z</time>
      </trkpt>
      <trkpt lat="50.47539" lon="5.72032">
        <ele>203.94</ele>
        <time>2010-04-02T14:18:44Z</time>
      </trkpt>
      <trkpt lat="50.47538" lon="5.72021">
        <ele>202.49</ele>
        <time>2010-04-02T14:18:45Z</time>
      </trkpt>
      <trkpt lat="50.47536" lon="5.72009">
        <ele>200.09</ele>
        <time>2010-04-02T14:18:46Z</time>
      </trkpt>
      <trkpt lat="50.47537" lon="5.71997">
        <ele>198.65</ele>
        <time>2010-04-02T14:18:47Z</time>
      </trkpt>
      <trkpt lat="50.4754" lon="5.71963">
        <ele>193.84</ele>
        <time>2010-04-02T14:18:50Z</time>
      </trkpt>
      <trkpt lat="50.47539" lon="5.71953">
        <ele>192.4</ele>
        <time>2010-04-02T14:18:51Z</time>
      </trkpt>
      <trkpt lat="50.47538" lon="5.71943">
        <ele>190.96</ele>
        <time>2010-04-02T14:18:52Z</time>
      </trkpt>
      <trkpt lat="50.47535" lon="5.71933">
        <ele>189.04</ele>
        <time>2010-04-02T14:18:53Z</time>
      </trkpt>
      <trkpt lat="50.47533" lon="5.71923">
        <ele>187.59</ele>
        <time>2010-04-02T14:18:54Z</time>
      </trkpt>
      <trkpt lat="50.4753" lon="5.71912">
        <ele>185.67</ele>
        <time>2010-04-02T14:18:55Z</time>
      </trkpt>
      <trkpt lat="50.47529" lon="5.71902">
        <ele>183.27</ele>
        <time>2010-04-02T14:18:56Z</time>
      </trkpt>
      <trkpt lat="50.47529" lon="5.7189">
        <ele>181.35</ele>
        <time>2010-04-02T14:18:57Z</time>
      </trkpt>
      <trkpt lat="50.47531" lon="5.71877">
        <ele>178.94</ele>
        <time>2010-04-02T14:18:58Z</time>
      </trkpt>
      <trkpt lat="50.47533" lon="5.71864">
        <ele>178.46</ele>
        <time>2010-04-02T14:18:59Z</time>
      </trkpt>
      <trkpt lat="50.47534" lon="5.71852">
        <ele>177.98</ele>
        <time>2010-04-02T14:19:00Z</time>
      </trkpt>
      <trkpt lat="50.47534" lon="5.71841">
        <ele>177.02</ele>
        <time>2010-04-02T14:19:01Z</time>
      </trkpt>
      <trkpt lat="50.47532" lon="5.7183">
        <ele>177.02</ele>
        <time>2010-04-02T14:19:02Z</time>
      </trkpt>
      <trkpt lat="50.4753" lon="5.71819">
        <ele>176.06</ele>
        <time>2010-04-02T14:19:03Z</time>
      </trkpt>
      <trkpt lat="50.47529" lon="5.71808">
        <ele>174.62</ele>
        <time>2010-04-02T14:19:04Z</time>
      </trkpt>
      <trkpt lat="50.47529" lon="5.71796">
        <ele>172.69</ele>
        <time>2010-04-02T14:19:05Z</time>
      </trkpt>
      <trkpt lat="50.47531" lon="5.71782">
        <ele>170.77</ele>
        <time>2010-04-02T14:19:06Z</time>
      </trkpt>
      <trkpt lat="50.47539" lon="5.71725">
        <ele>160.68</ele>
        <time>2010-04-02T14:19:10Z</time>
      </trkpt>
      <trkpt lat="50.47542" lon="5.71712">
        <ele>158.75</ele>
        <time>2010-04-02T14:19:11Z</time>
      </trkpt>
      <trkpt lat="50.47549" lon="5.71676">
        <ele>153.47</ele>
        <time>2010-04-02T14:19:14Z</time>
      </trkpt>
      <trkpt lat="50.47554" lon="5.7167">
        <ele>151.54</ele>
        <time>2010-04-02T14:19:15Z</time>
      </trkpt>
      <trkpt lat="50.47561" lon="5.7167">
        <ele>150.1</ele>
        <time>2010-04-02T14:19:16Z</time>
      </trkpt>
      <trkpt lat="50.47569" lon="5.71673">
        <ele>148.18</ele>
        <time>2010-04-02T14:19:17Z</time>
      </trkpt>
      <trkpt lat="50.47576" lon="5.71678">
        <ele>147.22</ele>
        <time>2010-04-02T14:19:18Z</time>
      </trkpt>
      <trkpt lat="50.47583" lon="5.71683">
        <ele>146.74</ele>
        <time>2010-04-02T14:19:19Z</time>
      </trkpt>
      <trkpt lat="50.47597" lon="5.71691">
        <ele>142.41</ele>
        <time>2010-04-02T14:19:25Z</time>
      </trkpt>
      <trkpt lat="50.47598" lon="5.7169">
        <ele>142.41</ele>
        <time>2010-04-02T14:19:26Z</time>
      </trkpt>
      <trkpt lat="50.476" lon="5.71687">
        <ele>142.41</ele>
        <time>2010-04-02T14:19:27Z</time>
      </trkpt>
      <trkpt lat="50.47601" lon="5.71682">
        <ele>141.93</ele>
        <time>2010-04-02T14:19:28Z</time>
      </trkpt>
      <trkpt lat="50.47602" lon="5.71675">
        <ele>141.93</ele>
        <time>2010-04-02T14:19:29Z</time>
      </trkpt>
      <trkpt lat="50.47601" lon="5.71666">
        <ele>141.93</ele>
        <time>2010-04-02T14:19:30Z</time>
      </trkpt>
      <trkpt lat="50.47601" lon="5.71657">
        <ele>141.93</ele>
        <time>2010-04-02T14:19:31Z</time>
      </trkpt>
      <trkpt lat="50.47613" lon="5.71533">
        <ele>132.8</ele>
        <time>2010-04-02T14:19:40Z</time>
      </trkpt>
      <trkpt lat="50.47642" lon="5.71458">
        <ele>130.4</ele>
        <time>2010-04-02T14:19:45Z</time>
      </trkpt>
      <trkpt lat="50.47653" lon="5.71445">
        <ele>130.4</ele>
        <time>2010-04-02T14:19:46Z</time>
      </trkpt>
      <trkpt lat="50.47776" lon="5.71309">
        <ele>137.13</ele>
        <time>2010-04-02T14:19:59Z</time>
      </trkpt>
      <trkpt lat="50.47827" lon="5.71271">
        <ele>137.13</ele>
        <time>2010-04-02T14:20:07Z</time>
      </trkpt>
      <trkpt lat="50.47847" lon="5.71263">
        <ele>135.2</ele>
        <time>2010-04-02T14:20:15Z</time>
      </trkpt>
      <trkpt lat="50.4792" lon="5.7123">
        <ele>130.4</ele>
        <time>2010-04-02T14:20:29Z</time>
      </trkpt>
      <trkpt lat="50.47959" lon="5.712">
        <ele>138.09</ele>
        <time>2010-04-02T14:20:41Z</time>
      </trkpt>
      <trkpt lat="50.47969" lon="5.71193">
        <ele>140.49</ele>
        <time>2010-04-02T14:20:51Z</time>
      </trkpt>
      <trkpt lat="50.47987" lon="5.71175">
        <ele>140.49</ele>
        <time>2010-04-02T14:21:02Z</time>
      </trkpt>
      <trkpt lat="50.47988" lon="5.71167">
        <ele>139.05</ele>
        <time>2010-04-02T14:21:03Z</time>
      </trkpt>
      <trkpt lat="50.47988" lon="5.71157">
        <ele>137.61</ele>
        <time>2010-04-02T14:21:04Z</time>
      </trkpt>
      <trkpt lat="50.47989" lon="5.71133">
        <ele>135.2</ele>
        <time>2010-04-02T14:21:06Z</time>
      </trkpt>
      <trkpt lat="50.4799" lon="5.71122">
        <ele>134.24</ele>
        <time>2010-04-02T14:21:07Z</time>
      </trkpt>
      <trkpt lat="50.47993" lon="5.71111">
        <ele>133.76</ele>
        <time>2010-04-02T14:21:08Z</time>
      </trkpt>
      <trkpt lat="50.47998" lon="5.71102">
        <ele>132.32</ele>
        <time>2010-04-02T14:21:09Z</time>
      </trkpt>
      <trkpt lat="50.48004" lon="5.71094">
        <ele>131.84</ele>
        <time>2010-04-02T14:21:10Z</time>
      </trkpt>
      <trkpt lat="50.48011" lon="5.71086">
        <ele>131.84</ele>
        <time>2010-04-02T14:21:11Z</time>
      </trkpt>
      <trkpt lat="50.48019" lon="5.71078">
        <ele>131.36</ele>
        <time>2010-04-02T14:21:12Z</time>
      </trkpt>
      <trkpt lat="50.48138" lon="5.70929">
        <ele>127.99</ele>
        <time>2010-04-02T14:21:28Z</time>
      </trkpt>
      <trkpt lat="50.48158" lon="5.70875">
        <ele>125.59</ele>
        <time>2010-04-02T14:21:35Z</time>
      </trkpt>
      <trkpt lat="50.48167" lon="5.70849">
        <ele>123.67</ele>
        <time>2010-04-02T14:21:53Z</time>
      </trkpt>
      <trkpt lat="50.48173" lon="5.7083">
        <ele>122.71</ele>
        <time>2010-04-02T14:21:55Z</time>
      </trkpt>
      <trkpt lat="50.48199" lon="5.70733">
        <ele>121.26</ele>
        <time>2010-04-02T14:22:05Z</time>
      </trkpt>
      <trkpt lat="50.48204" lon="5.70731">
        <ele>121.26</ele>
        <time>2010-04-02T14:22:06Z</time>
      </trkpt>
      <trkpt lat="50.48212" lon="5.70729">
        <ele>120.78</ele>
        <time>2010-04-02T14:22:07Z</time>
      </trkpt>
      <trkpt lat="50.48279" lon="5.70714">
        <ele>125.11</ele>
        <time>2010-04-02T14:22:14Z</time>
      </trkpt>
      <trkpt lat="50.48291" lon="5.70713">
        <ele>126.55</ele>
        <time>2010-04-02T14:22:20Z</time>
      </trkpt>
      <trkpt lat="50.48299" lon="5.70711">
        <ele>127.51</ele>
        <time>2010-04-02T14:22:22Z</time>
      </trkpt>
      <trkpt lat="50.4835" lon="5.70708">
        <ele>130.88</ele>
        <time>2010-04-02T14:22:29Z</time>
      </trkpt>
      <trkpt lat="50.48359" lon="5.70707">
        <ele>130.4</ele>
        <time>2010-04-02T14:22:30Z</time>
      </trkpt>
      <trkpt lat="50.484" lon="5.70704">
        <ele>133.28</ele>
        <time>2010-04-02T14:22:35Z</time>
      </trkpt>
      <trkpt lat="50.48407" lon="5.70701">
        <ele>134.24</ele>
        <time>2010-04-02T14:22:36Z</time>
      </trkpt>
      <trkpt lat="50.48413" lon="5.70697">
        <ele>133.76</ele>
        <time>2010-04-02T14:22:37Z</time>
      </trkpt>
      <trkpt lat="50.48417" lon="5.70692">
        <ele>133.28</ele>
        <time>2010-04-02T14:22:38Z</time>
      </trkpt>
      <trkpt lat="50.48419" lon="5.70685">
        <ele>132.8</ele>
        <time>2010-04-02T14:22:39Z</time>
      </trkpt>
      <trkpt lat="50.48418" lon="5.70676">
        <ele>132.8</ele>
        <time>2010-04-02T14:22:40Z</time>
      </trkpt>
      <trkpt lat="50.48415" lon="5.70667">
        <ele>132.8</ele>
        <time>2010-04-02T14:22:41Z</time>
      </trkpt>
      <trkpt lat="50.4841" lon="5.70658">
        <ele>132.8</ele>
        <time>2010-04-02T14:22:42Z</time>
      </trkpt>
      <trkpt lat="50.48405" lon="5.70649">
        <ele>132.8</ele>
        <time>2010-04-02T14:22:43Z</time>
      </trkpt>
      <trkpt lat="50.48347" lon="5.70537">
        <ele>128.95</ele>
        <time>2010-04-02T14:22:53Z</time>
      </trkpt>
      <trkpt lat="50.48343" lon="5.70524">
        <ele>128.47</ele>
        <time>2010-04-02T14:22:54Z</time>
      </trkpt>
      <trkpt lat="50.48339" lon="5.70511">
        <ele>127.99</ele>
        <time>2010-04-02T14:22:55Z</time>
      </trkpt>
      <trkpt lat="50.48333" lon="5.70485">
        <ele>126.55</ele>
        <time>2010-04-02T14:23:00Z</time>
      </trkpt>
      <trkpt lat="50.48327" lon="5.70447">
        <ele>124.15</ele>
        <time>2010-04-02T14:23:08Z</time>
      </trkpt>
      <trkpt lat="50.48322" lon="5.70403">
        <ele>123.19</ele>
        <time>2010-04-02T14:23:13Z</time>
      </trkpt>
      <trkpt lat="50.48324" lon="5.70395">
        <ele>123.19</ele>
        <time>2010-04-02T14:23:14Z</time>
      </trkpt>
      <trkpt lat="50.48328" lon="5.70387">
        <ele>123.19</ele>
        <time>2010-04-02T14:23:15Z</time>
      </trkpt>
      <trkpt lat="50.48332" lon="5.7038">
        <ele>123.19</ele>
        <time>2010-04-02T14:23:16Z</time>
      </trkpt>
      <trkpt lat="50.48338" lon="5.70375">
        <ele>123.67</ele>
        <time>2010-04-02T14:23:17Z</time>
      </trkpt>
      <trkpt lat="50.48344" lon="5.70369">
        <ele>123.67</ele>
        <time>2010-04-02T14:23:18Z</time>
      </trkpt>
      <trkpt lat="50.48403" lon="5.70322">
        <ele>128.95</ele>
        <time>2010-04-02T14:23:24Z</time>
      </trkpt>
      <trkpt lat="50.48412" lon="5.70316">
        <ele>129.92</ele>
        <time>2010-04-02T14:23:25Z</time>
      </trkpt>
      <trkpt lat="50.48423" lon="5.70314">
        <ele>130.88</ele>
        <time>2010-04-02T14:23:26Z</time>
      </trkpt>
      <trkpt lat="50.48435" lon="5.70315">
        <ele>131.36</ele>
        <time>2010-04-02T14:23:27Z</time>
      </trkpt>
      <trkpt lat="50.48447" lon="5.70317">
        <ele>132.32</ele>
        <time>2010-04-02T14:23:28Z</time>
      </trkpt>
      <trkpt lat="50.48548" lon="5.70343">
        <ele>140.49</ele>
        <time>2010-04-02T14:23:36Z</time>
      </trkpt>
      <trkpt lat="50.48561" lon="5.70341">
        <ele>141.93</ele>
        <time>2010-04-02T14:23:37Z</time>
      </trkpt>
      <trkpt lat="50.48573" lon="5.70337">
        <ele>142.89</ele>
        <time>2010-04-02T14:23:38Z</time>
      </trkpt>
      <trkpt lat="50.48607" lon="5.70321">
        <ele>147.22</ele>
        <time>2010-04-02T14:23:41Z</time>
      </trkpt>
      <trkpt lat="50.48615" lon="5.70321">
        <ele>148.18</ele>
        <time>2010-04-02T14:23:42Z</time>
      </trkpt>
      <trkpt lat="50.4862" lon="5.70324">
        <ele>149.14</ele>
        <time>2010-04-02T14:23:43Z</time>
      </trkpt>
      <trkpt lat="50.48625" lon="5.70335">
        <ele>149.14</ele>
        <time>2010-04-02T14:23:44Z</time>
      </trkpt>
      <trkpt lat="50.48629" lon="5.7035">
        <ele>149.62</ele>
        <time>2010-04-02T14:23:45Z</time>
      </trkpt>
      <trkpt lat="50.48632" lon="5.70367">
        <ele>150.58</ele>
        <time>2010-04-02T14:23:46Z</time>
      </trkpt>
      <trkpt lat="50.48635" lon="5.70386">
        <ele>152.03</ele>
        <time>2010-04-02T14:23:47Z</time>
      </trkpt>
      <trkpt lat="50.48645" lon="5.7044">
        <ele>156.83</ele>
        <time>2010-04-02T14:23:50Z</time>
      </trkpt>
      <trkpt lat="50.48651" lon="5.7046">
        <ele>158.27</ele>
        <time>2010-04-02T14:23:51Z</time>
      </trkpt>
      <trkpt lat="50.48658" lon="5.7048">
        <ele>160.2</ele>
        <time>2010-04-02T14:23:52Z</time>
      </trkpt>
      <trkpt lat="50.48666" lon="5.70499">
        <ele>161.64</ele>
        <time>2010-04-02T14:23:53Z</time>
      </trkpt>
      <trkpt lat="50.48675" lon="5.70518">
        <ele>163.56</ele>
        <time>2010-04-02T14:23:54Z</time>
      </trkpt>
      <trkpt lat="50.48772" lon="5.70675">
        <ele>175.58</ele>
        <time>2010-04-02T14:24:02Z</time>
      </trkpt>
      <trkpt lat="50.48835" lon="5.70768">
        <ele>186.15</ele>
        <time>2010-04-02T14:24:07Z</time>
      </trkpt>
      <trkpt lat="50.48845" lon="5.70774">
        <ele>188.56</ele>
        <time>2010-04-02T14:24:08Z</time>
      </trkpt>
      <trkpt lat="50.48856" lon="5.70775">
        <ele>190.96</ele>
        <time>2010-04-02T14:24:09Z</time>
      </trkpt>
      <trkpt lat="50.48867" lon="5.70772">
        <ele>192.4</ele>
        <time>2010-04-02T14:24:10Z</time>
      </trkpt>
      <trkpt lat="50.48878" lon="5.70767">
        <ele>194.32</ele>
        <time>2010-04-02T14:24:11Z</time>
      </trkpt>
      <trkpt lat="50.48887" lon="5.70762">
        <ele>195.77</ele>
        <time>2010-04-02T14:24:12Z</time>
      </trkpt>
      <trkpt lat="50.48898" lon="5.70754">
        <ele>198.65</ele>
        <time>2010-04-02T14:24:17Z</time>
      </trkpt>
      <trkpt lat="50.48913" lon="5.70745">
        <ele>203.46</ele>
        <time>2010-04-02T14:24:47Z</time>
      </trkpt>
      <trkpt lat="50.48976" lon="5.707">
        <ele>206.82</ele>
        <time>2010-04-02T14:24:54Z</time>
      </trkpt>
      <trkpt lat="50.49064" lon="5.70597">
        <ele>219.32</ele>
        <time>2010-04-02T14:25:03Z</time>
      </trkpt>
      <trkpt lat="50.49074" lon="5.70588">
        <ele>221.24</ele>
        <time>2010-04-02T14:25:04Z</time>
      </trkpt>
      <trkpt lat="50.49085" lon="5.70579">
        <ele>223.16</ele>
        <time>2010-04-02T14:25:05Z</time>
      </trkpt>
      <trkpt lat="50.49093" lon="5.70567">
        <ele>225.09</ele>
        <time>2010-04-02T14:25:06Z</time>
      </trkpt>
      <trkpt lat="50.49099" lon="5.70551">
        <ele>227.01</ele>
        <time>2010-04-02T14:25:07Z</time>
      </trkpt>
      <trkpt lat="50.49103" lon="5.70533">
        <ele>229.41</ele>
        <time>2010-04-02T14:25:08Z</time>
      </trkpt>
      <trkpt lat="50.49104" lon="5.70514">
        <ele>231.81</ele>
        <time>2010-04-02T14:25:09Z</time>
      </trkpt>
      <trkpt lat="50.49103" lon="5.70494">
        <ele>234.22</ele>
        <time>2010-04-02T14:25:10Z</time>
      </trkpt>
      <trkpt lat="50.491" lon="5.70476">
        <ele>236.62</ele>
        <time>2010-04-02T14:25:11Z</time>
      </trkpt>
      <trkpt lat="50.49097" lon="5.70457">
        <ele>239.02</ele>
        <time>2010-04-02T14:25:12Z</time>
      </trkpt>
      <trkpt lat="50.49093" lon="5.70423">
        <ele>242.39</ele>
        <time>2010-04-02T14:25:14Z</time>
      </trkpt>
      <trkpt lat="50.49092" lon="5.70405">
        <ele>243.83</ele>
        <time>2010-04-02T14:25:15Z</time>
      </trkpt>
      <trkpt lat="50.49093" lon="5.70386">
        <ele>245.27</ele>
        <time>2010-04-02T14:25:16Z</time>
      </trkpt>
      <trkpt lat="50.49094" lon="5.70365">
        <ele>246.72</ele>
        <time>2010-04-02T14:25:17Z</time>
      </trkpt>
      <trkpt lat="50.49097" lon="5.70345">
        <ele>248.64</ele>
        <time>2010-04-02T14:25:18Z</time>
      </trkpt>
      <trkpt lat="50.491" lon="5.70324">
        <ele>250.08</ele>
        <time>2010-04-02T14:25:19Z</time>
      </trkpt>
      <trkpt lat="50.49127" lon="5.70195">
        <ele>258.73</ele>
        <time>2010-04-02T14:25:25Z</time>
      </trkpt>
      <trkpt lat="50.49135" lon="5.70178">
        <ele>260.17</ele>
        <time>2010-04-02T14:25:26Z</time>
      </trkpt>
      <trkpt lat="50.49146" lon="5.70163">
        <ele>261.62</ele>
        <time>2010-04-02T14:25:27Z</time>
      </trkpt>
      <trkpt lat="50.49158" lon="5.70151">
        <ele>263.54</ele>
        <time>2010-04-02T14:25:28Z</time>
      </trkpt>
      <trkpt lat="50.4917" lon="5.70139">
        <ele>265.46</ele>
        <time>2010-04-02T14:25:29Z</time>
      </trkpt>
      <trkpt lat="50.49182" lon="5.70127">
        <ele>267.38</ele>
        <time>2010-04-02T14:25:30Z</time>
      </trkpt>
      <trkpt lat="50.49193" lon="5.70112">
        <ele>269.31</ele>
        <time>2010-04-02T14:25:31Z</time>
      </trkpt>
      <trkpt lat="50.49203" lon="5.70098">
        <ele>271.23</ele>
        <time>2010-04-02T14:25:32Z</time>
      </trkpt>
      <trkpt lat="50.49212" lon="5.70081">
        <ele>272.67</ele>
        <time>2010-04-02T14:25:33Z</time>
      </trkpt>
      <trkpt lat="50.49219" lon="5.70063">
        <ele>275.07</ele>
        <time>2010-04-02T14:25:34Z</time>
      </trkpt>
      <trkpt lat="50.49223" lon="5.70043">
        <ele>277</ele>
        <time>2010-04-02T14:25:35Z</time>
      </trkpt>
      <trkpt lat="50.49226" lon="5.70022">
        <ele>279.4</ele>
        <time>2010-04-02T14:25:36Z</time>
      </trkpt>
      <trkpt lat="50.49227" lon="5.70004">
        <ele>281.32</ele>
        <time>2010-04-02T14:25:37Z</time>
      </trkpt>
      <trkpt lat="50.4923" lon="5.69931">
        <ele>288.53</ele>
        <time>2010-04-02T14:25:43Z</time>
      </trkpt>
      <trkpt lat="50.49229" lon="5.69923">
        <ele>289.01</ele>
        <time>2010-04-02T14:25:44Z</time>
      </trkpt>
      <trkpt lat="50.49226" lon="5.69916">
        <ele>289.49</ele>
        <time>2010-04-02T14:25:45Z</time>
      </trkpt>
      <trkpt lat="50.4922" lon="5.69903">
        <ele>290.46</ele>
        <time>2010-04-02T14:25:47Z</time>
      </trkpt>
      <trkpt lat="50.49218" lon="5.69896">
        <ele>290.94</ele>
        <time>2010-04-02T14:25:48Z</time>
      </trkpt>
      <trkpt lat="50.49202" lon="5.69869">
        <ele>291.9</ele>
        <time>2010-04-02T14:25:51Z</time>
      </trkpt>
      <trkpt lat="50.49131" lon="5.6978">
        <ele>294.3</ele>
        <time>2010-04-02T14:25:58Z</time>
      </trkpt>
      <trkpt lat="50.49113" lon="5.69752">
        <ele>296.22</ele>
        <time>2010-04-02T14:26:00Z</time>
      </trkpt>
      <trkpt lat="50.4908" lon="5.69682">
        <ele>300.07</ele>
        <time>2010-04-02T14:26:04Z</time>
      </trkpt>
      <trkpt lat="50.4898" lon="5.69559">
        <ele>308.72</ele>
        <time>2010-04-02T14:26:13Z</time>
      </trkpt>
      <trkpt lat="50.48863" lon="5.69463">
        <ele>311.12</ele>
        <time>2010-04-02T14:26:23Z</time>
      </trkpt>
    </trkseg>
  </trk>
</gpx>